Time;durP1;ratioP1;P1;durP2;ratioP2;P2;SDS_P1;SDS_P2;PMS_P1;PMS_P2;Temp;Humidity;BMP_temperature;BMP_pressure;BME280_temperature;BME280_humidity;BME280_pressure;Samples;Min_cycle;Max_cycle;Signal;HPM_P1;HPM_P2
2023/12/08 00:01:36;;;;;;;;;;;;;;;0.77;100.00;100767.09;5042542;28;1188;-74
2023/12/08 00:04:01;;;;;;;;;;;;;;;0.79;100.00;100761.91;5043873;28;1973;-75
2023/12/08 00:06:26;;;;;;;;;;;;;;;0.78;100.00;100752.59;5038303;28;1028;-72
2023/12/08 00:08:52;;;;;;;;;;;;;;;0.79;100.00;100744.03;5045522;28;1116;-75
2023/12/08 00:11:17;;;;;;;;;;;;;;;0.80;100.00;100745.69;5043181;28;1154;-72
2023/12/08 00:13:42;;;;;;;;;;;;;;;0.79;100.00;100736.38;5042404;28;1237;-73
2023/12/08 00:16:08;;;;;;;;;;;;;;;0.77;100.00;100720.31;5043199;28;1080;-72
2023/12/08 00:18:33;;;;;;;;;;;;;;;0.78;100.00;100716.84;5039594;28;1107;-72
2023/12/08 00:20:59;;;;;;;;;;;;;;;0.76;100.00;100718.66;5039954;28;1173;-72
2023/12/08 00:23:24;;;;;;;;;;;;;;;0.73;100.00;100700.91;5038678;28;1890;-72
2023/12/08 00:25:49;;;;;;;;;;;;;;;0.77;100.00;100705.00;5036483;28;1272;-72
2023/12/08 00:28:14;;;;;;;;;;;;;;;0.76;100.00;100699.06;5044189;28;1168;-74
2023/12/08 00:30:40;;;;;;;;;;;;;;;0.76;100.00;100693.13;5033253;28;1275;-71
2023/12/08 00:33:05;;;;;;;;;;;;;;;0.77;100.00;100689.69;5033998;28;1215;-73
2023/12/08 00:35:30;;;;;;;;;;;;;;;0.77;100.00;100694.78;5029156;28;1131;-71
2023/12/08 00:37:56;;;;;;;;;;;;;;;0.77;100.00;100689.69;5026241;28;1069;-72
2023/12/08 00:40:21;;;;;;;;;;;;;;;0.78;100.00;100699.81;5029750;28;1187;-72
2023/12/08 00:42:47;;;;;;;;;;;;;;;0.79;100.00;100687.88;5040074;28;1906;-72
2023/12/08 00:45:13;;;;;;;;;;;;;;;0.79;100.00;100690.44;5061599;28;1100;-71
2023/12/08 00:47:38;;;;;;;;;;;;;;;0.81;100.00;100691.22;5048052;28;1117;-71
2023/12/08 00:50:04;;;;;;;;;;;;;;;0.81;100.00;100691.22;5051067;28;1150;-74
2023/12/08 00:52:29;;;;;;;;;;;;;;;0.81;100.00;100688.66;5046652;28;1335;-73
2023/12/08 00:54:54;;;;;;;;;;;;;;;0.81;100.00;100691.22;5039672;28;1115;-72
2023/12/08 00:57:19;;;;;;;;;;;;;;;0.81;100.00;100675.06;5043747;28;1138;-72
2023/12/08 00:59:44;;;;;;;;;;;;;;;0.81;100.00;100670.78;5039631;28;1121;-72
2023/12/08 01:02:09;;;;;;;;;;;;;;;0.81;100.00;100665.69;5036069;28;992;-71
2023/12/08 01:04:35;;;;;;;;;;;;;;;0.82;100.00;100667.34;5037977;28;1953;-74
2023/12/08 01:07:00;;;;;;;;;;;;;;;0.82;100.00;100669.88;5041169;28;1275;-71
2023/12/08 01:09:26;;;;;;;;;;;;;;;0.84;100.00;100665.53;5036389;28;1025;-72
2023/12/08 01:11:51;;;;;;;;;;;;;;;0.84;100.00;100662.97;5037603;28;1162;-71
2023/12/08 01:14:16;;;;;;;;;;;;;;;0.84;100.00;100668.09;5045079;28;1118;-72
2023/12/08 01:16:42;;;;;;;;;;;;;;;0.85;100.00;100667.19;5037275;28;1095;-72
2023/12/08 01:19:10;;;;;;;;;;;;;;;0.85;100.00;100667.19;5046115;28;1121;-71
2023/12/08 01:21:36;;;;;;;;;;;;;;;0.87;100.00;100669.69;5042871;28;1451;-72
2023/12/08 01:24:01;;;;;;;;;;;;;;;0.87;100.00;100670.50;5044522;28;1959;-73
2023/12/08 01:26:27;;;;;;;;;;;;;;;0.87;100.00;100667.97;5036767;28;1334;-73
2023/12/08 01:28:52;;;;;;;;;;;;;;;0.88;100.00;100672.16;5040191;28;1057;-73
2023/12/08 01:31:17;;;;;;;;;;;;;;;0.87;100.00;100670.50;5040023;28;1165;-73
2023/12/08 01:33:43;;;;;;;;;;;;;;;0.88;100.00;100666.25;5033791;28;1063;-71
2023/12/08 01:36:08;;;;;;;;;;;;;;;0.87;100.00;100655.19;5031246;28;942;-73
2023/12/08 01:38:33;;;;;;;;;;;;;;;0.88;100.00;100654.28;5032231;28;1364;-71
2023/12/08 01:40:58;;;;;;;;;;;;;;;0.88;100.00;100656.03;5034161;28;1147;-73
2023/12/08 01:43:24;;;;;;;;;;;;;;;0.88;100.00;100649.19;5027857;28;1971;-72
2023/12/08 01:45:49;;;;;;;;;;;;;;;0.87;100.00;100650.09;5031119;28;1181;-71
2023/12/08 01:48:14;;;;;;;;;;;;;;;0.88;100.00;100650.91;5037204;28;1045;-73
2023/12/08 01:50:40;;;;;;;;;;;;;;;0.89;100.00;100658.50;5031149;28;1015;-73
2023/12/08 01:53:06;;;;;;;;;;;;;;;0.89;100.00;100648.28;5038361;28;927;-73
2023/12/08 01:55:31;;;;;;;;;;;;;;;0.89;100.00;100645.72;5049712;28;1023;-73
2023/12/08 01:57:57;;;;;;;;;;;;;;;0.89;100.00;100648.28;5049417;28;969;-73
2023/12/08 02:00:22;;;;;;;;;;;;;;;0.90;100.00;100634.63;5031028;28;1296;-73
2023/12/08 02:02:48;;;;;;;;;;;;;;;0.90;100.00;100642.28;5047239;28;1984;-73
2023/12/08 02:05:14;;;;;;;;;;;;;;;0.89;100.00;100632.97;5045756;28;1169;-74
2023/12/08 02:07:39;;;;;;;;;;;;;;;0.89;100.00;100622.75;5045027;28;1127;-72
2023/12/08 02:10:05;;;;;;;;;;;;;;;0.91;100.00;100630.34;5049555;28;994;-71
2023/12/08 02:12:30;;;;;;;;;;;;;;;0.89;100.00;100632.97;5042221;28;1151;-71
2023/12/08 02:14:55;;;;;;;;;;;;;;;0.89;100.00;100630.41;5038876;28;1232;-73
2023/12/08 02:17:32;;;;;;;;;;;;;;;0.89;100.00;100632.97;5032906;28;1268;-72
2023/12/08 02:19:58;;;;;;;;;;;;;;;0.89;100.00;100627.88;5042356;28;1346;-73
2023/12/08 02:22:24;;;;;;;;;;;;;;;0.88;100.00;100620.28;5046457;28;1277;-71
2023/12/08 02:24:49;;;;;;;;;;;;;;;0.88;100.00;100621.09;5035460;28;1960;-71
2023/12/08 02:27:14;;;;;;;;;;;;;;;0.87;100.00;100606.69;5042493;28;1429;-71
2023/12/08 02:29:40;;;;;;;;;;;;;;;0.86;100.00;100602.47;5040576;28;1091;-71
2023/12/08 02:32:22;;;;;;;;;;;;;;;0.86;100.00;100610.16;5039487;28;1196;-71
2023/12/08 02:34:48;;;;;;;;;;;;;;;0.86;100.00;100602.47;5037373;28;1067;-72
2023/12/08 02:37:17;;;;;;;;;;;;;;;0.82;100.00;100590.75;5034500;28;1136;-73
2023/12/08 02:39:43;;;;;;;;;;;;;;;0.82;100.00;100590.75;5035811;28;1157;-74
2023/12/08 02:42:10;;;;;;;;;;;;;;;0.82;100.00;100592.47;5040455;28;1305;-73
2023/12/08 02:44:35;;;;;;;;;;;;;;;0.81;100.00;100581.44;5028193;28;1985;-73
2023/12/08 02:47:00;;;;;;;;;;;;;;;0.82;100.00;100583.09;5031227;28;1185;-72
2023/12/08 02:49:25;;;;;;;;;;;;;;;0.81;100.00;100578.88;5025828;28;1221;-73
2023/12/08 02:51:51;;;;;;;;;;;;;;;0.81;100.00;100589.09;5032774;28;1022;-74
2023/12/08 02:54:16;;;;;;;;;;;;;;;0.81;100.00;100576.34;5031308;28;1170;-73
2023/12/08 02:56:41;;;;;;;;;;;;;;;0.81;100.00;100568.66;5033431;28;1331;-73
2023/12/08 02:59:06;;;;;;;;;;;;;;;0.79;100.00;100565.34;5036330;28;1121;-73
2023/12/08 03:01:31;;;;;;;;;;;;;;;0.80;100.00;100564.44;5041183;28;1126;-72
2023/12/08 03:03:57;;;;;;;;;;;;;;;0.80;100.00;100559.34;5046101;28;2001;-72
2023/12/08 03:06:22;;;;;;;;;;;;;;;0.79;100.00;100550.84;5039157;28;1206;-73
2023/12/08 03:08:47;;;;;;;;;;;;;;;0.79;100.00;100555.97;5052715;28;957;-74
2023/12/08 03:11:12;;;;;;;;;;;;;;;0.80;100.00;100549.13;5045880;28;1070;-72
2023/12/08 03:13:37;;;;;;;;;;;;;;;0.81;100.00;100557.63;5046376;28;1305;-72
2023/12/08 03:16:03;;;;;;;;;;;;;;;0.80;100.00;100556.78;5047601;28;1098;-72
2023/12/08 03:18:28;;;;;;;;;;;;;;;0.80;100.00;100554.22;5054065;28;1155;-73
2023/12/08 03:20:53;;;;;;;;;;;;;;;0.81;100.00;100553.34;5049617;28;1165;-72
2023/12/08 03:23:18;;;;;;;;;;;;;;;0.80;100.00;100544.00;5047186;28;1906;-73
2023/12/08 03:25:43;;;;;;;;;;;;;;;0.81;100.00;100543.16;5049611;28;1088;-73
2023/12/08 03:28:09;;;;;;;;;;;;;;;0.81;100.00;100537.22;5047537;28;1097;-72
2023/12/08 03:30:34;;;;;;;;;;;;;;;0.80;100.00;100536.34;5048350;28;1084;-73
2023/12/08 03:32:59;;;;;;;;;;;;;;;0.80;100.00;100536.34;5050151;28;1200;-73
2023/12/08 03:35:24;;;;;;;;;;;;;;;0.78;100.00;100543.28;5049971;28;1323;-74
2023/12/08 03:37:49;;;;;;;;;;;;;;;0.80;100.00;100541.47;5046662;28;1002;-72
2023/12/08 03:40:14;;;;;;;;;;;;;;;0.79;100.00;100542.38;5051291;28;1177;-71
2023/12/08 03:42:40;;;;;;;;;;;;;;;0.80;100.00;100546.56;5044832;28;1350;-73
2023/12/08 03:45:05;;;;;;;;;;;;;;;0.81;100.00;100549.97;5040571;28;1913;-76
2023/12/08 03:47:30;;;;;;;;;;;;;;;0.80;100.00;100551.69;5047786;28;1126;-72
2023/12/08 03:49:56;;;;;;;;;;;;;;;0.81;100.00;100545.69;5032342;28;1094;-71
2023/12/08 03:52:21;;;;;;;;;;;;;;;0.81;100.00;100540.59;5046874;28;1160;-72
2023/12/08 03:54:46;;;;;;;;;;;;;;;0.81;100.00;100540.59;5036626;28;1128;-73
2023/12/08 03:57:11;;;;;;;;;;;;;;;0.81;100.00;100532.09;5038814;28;1109;-75
2023/12/08 03:59:36;;;;;;;;;;;;;;;0.79;100.00;100525.31;5045483;28;1155;-72
2023/12/08 04:02:02;;;;;;;;;;;;;;;0.81;100.00;100532.94;5043310;28;1172;-72
2023/12/08 04:04:27;;;;;;;;;;;;;;;0.82;100.00;100534.59;5040947;28;1961;-73
2023/12/08 04:06:52;;;;;;;;;;;;;;;0.83;100.00;100541.34;5046054;28;943;-73
2023/12/08 04:09:17;;;;;;;;;;;;;;;0.84;100.00;100537.88;5043472;28;1152;-74
2023/12/08 04:11:42;;;;;;;;;;;;;;;0.85;100.00;100536.97;5046105;28;1125;-72
2023/12/08 04:14:08;;;;;;;;;;;;;;;0.84;100.00;100537.88;5037353;28;1147;-72
2023/12/08 04:16:33;;;;;;;;;;;;;;;0.84;100.00;100537.88;5037034;28;1061;-73
2023/12/08 04:18:58;;;;;;;;;;;;;;;0.83;100.00;100536.22;5036783;28;982;-71
2023/12/08 04:21:23;;;;;;;;;;;;;;;0.84;100.00;100527.66;5046957;28;1256;-73
2023/12/08 04:23:48;;;;;;;;;;;;;;;0.84;100.00;100532.78;5052394;28;1933;-73
2023/12/08 04:26:14;;;;;;;;;;;;;;;0.84;100.00;100527.66;5045007;28;1062;-72
2023/12/08 04:28:39;;;;;;;;;;;;;;;0.83;100.00;100526.03;5045472;28;981;-72
2023/12/08 04:31:05;;;;;;;;;;;;;;;0.84;100.00;100529.41;5048110;28;1029;-72
2023/12/08 04:33:30;;;;;;;;;;;;;;;0.83;100.00;100531.13;5044087;28;1204;-73
2023/12/08 04:35:55;;;;;;;;;;;;;;;0.82;100.00;100529.47;5043756;28;1175;-72
2023/12/08 04:38:20;;;;;;;;;;;;;;;0.83;100.00;100526.03;5048702;28;972;-72
2023/12/08 04:40:45;;;;;;;;;;;;;;;0.83;100.00;100526.03;5038097;28;1071;-74
2023/12/08 04:43:11;;;;;;;;;;;;;;;0.82;100.00;100524.38;5045884;28;1969;-73
2023/12/08 04:45:36;;;;;;;;;;;;;;;0.83;100.00;100520.09;5045740;28;1036;-72
2023/12/08 04:48:01;;;;;;;;;;;;;;;0.82;100.00;100534.59;5035618;28;1089;-72
2023/12/08 04:50:26;;;;;;;;;;;;;;;0.82;100.00;100529.47;5047595;28;1102;-72
2023/12/08 04:52:52;;;;;;;;;;;;;;;0.82;100.00;100519.25;5038994;28;1166;-72
2023/12/08 04:55:17;;;;;;;;;;;;;;;0.82;100.00;100503.94;5041513;28;1094;-73
2023/12/08 04:57:42;;;;;;;;;;;;;;;0.82;100.00;100514.16;5040878;28;1084;-73
2023/12/08 05:00:07;;;;;;;;;;;;;;;0.82;100.00;100503.94;5041108;28;1106;-73
2023/12/08 05:02:33;;;;;;;;;;;;;;;0.84;100.00;100509.81;5041913;28;1252;-74
2023/12/08 05:04:58;;;;;;;;;;;;;;;0.83;100.00;100518.38;5044529;28;1905;-73
2023/12/08 05:07:23;;;;;;;;;;;;;;;0.83;100.00;100525.19;5035245;28;1131;-73
2023/12/08 05:09:48;;;;;;;;;;;;;;;0.83;100.00;100528.56;5038229;28;1162;-72
2023/12/08 05:12:13;;;;;;;;;;;;;;;0.84;100.00;100517.47;5038650;28;1385;-72
2023/12/08 05:14:39;;;;;;;;;;;;;;;0.84;100.00;100508.97;5032860;28;1719;-73
2023/12/08 05:17:04;;;;;;;;;;;;;;;0.85;100.00;100508.91;5034383;28;1017;-73
2023/12/08 05:19:29;;;;;;;;;;;;;;;0.87;100.00;100521.63;5036209;28;1355;-74
2023/12/08 05:21:55;;;;;;;;;;;;;;;0.88;100.00;100515.59;5036535;28;1234;-72
2023/12/08 05:24:20;;;;;;;;;;;;;;;0.88;100.00;100508.78;5033406;28;1890;-71
2023/12/08 05:26:45;;;;;;;;;;;;;;;0.88;100.00;100493.44;5029405;28;1164;-72
2023/12/08 05:29:10;;;;;;;;;;;;;;;0.88;100.00;100488.34;5048018;28;1197;-72
2023/12/08 05:31:36;;;;;;;;;;;;;;;0.89;100.00;100492.53;5042052;28;1317;-74
2023/12/08 05:34:01;;;;;;;;;;;;;;;0.89;100.00;100490.00;5056742;28;1434;-72
2023/12/08 05:36:27;;;;;;;;;;;;;;;0.89;100.00;100484.88;5043288;28;967;-73
2023/12/08 05:38:52;;;;;;;;;;;;;;;0.91;100.00;100505.22;5039724;28;1008;-74
2023/12/08 05:41:17;;;;;;;;;;;;;;;0.91;100.00;100498.41;5046863;28;1079;-73
2023/12/08 05:43:42;;;;;;;;;;;;;;;0.93;100.00;100514.50;5045834;28;1890;-73
2023/12/08 05:46:08;;;;;;;;;;;;;;;0.93;100.00;100506.00;5037933;28;1131;-72
2023/12/08 05:48:33;;;;;;;;;;;;;;;0.93;100.00;100519.59;5037934;28;1371;-73
2023/12/08 05:50:58;;;;;;;;;;;;;;;0.94;100.00;100516.13;5037181;28;1268;-72
2023/12/08 05:53:23;;;;;;;;;;;;;;;0.94;100.00;100518.69;5052812;28;1161;-70
2023/12/08 05:55:48;;;;;;;;;;;;;;;0.96;100.00;100516.88;5046208;28;1103;-72
2023/12/08 05:58:14;;;;;;;;;;;;;;;0.97;100.00;100513.44;5041229;28;1346;-72
2023/12/08 06:00:39;;;;;;;;;;;;;;;0.96;100.00;100506.66;5041129;28;1686;-73
2023/12/08 06:03:04;;;;;;;;;;;;;;;0.98;100.00;100517.66;5035620;28;1969;-72
2023/12/08 06:05:29;;;;;;;;;;;;;;;1.00;100.00;100512.47;5041643;28;1133;-72
2023/12/08 06:07:54;;;;;;;;;;;;;;;0.99;100.00;100521.88;5034432;28;1143;-72
2023/12/08 06:10:21;;;;;;;;;;;;;;;0.97;100.00;100517.72;5035382;28;1148;-72
2023/12/08 06:12:46;;;;;;;;;;;;;;;1.01;100.00;100530.28;5047241;28;1162;-73
2023/12/08 06:15:12;;;;;;;;;;;;;;;1.01;100.00;100522.59;5034397;28;1134;-72
2023/12/08 06:17:37;;;;;;;;;;;;;;;1.01;100.00;100520.06;5034924;28;1131;-72
2023/12/08 06:20:04;;;;;;;;;;;;;;;1.03;100.00;100522.53;5033540;28;1167;-72
2023/12/08 06:22:30;;;;;;;;;;;;;;;1.03;100.00;100520.84;5032821;28;1212;-72
2023/12/08 06:24:55;;;;;;;;;;;;;;;1.03;100.00;100513.16;5037285;28;1977;-71
2023/12/08 06:27:20;;;;;;;;;;;;;;;1.04;100.00;100514.81;5034204;28;954;-72
2023/12/08 06:29:45;;;;;;;;;;;;;;;1.05;100.00;100516.47;5028372;28;1127;-71
2023/12/08 06:32:10;;;;;;;;;;;;;;;1.06;100.00;100518.13;5027449;28;1165;-72
2023/12/08 06:34:36;;;;;;;;;;;;;;;1.09;100.00;100521.41;5025687;28;1193;-72
2023/12/08 06:37:01;;;;;;;;;;;;;;;1.09;100.00;100527.38;5037917;28;1234;-73
2023/12/08 06:39:26;;;;;;;;;;;;;;;1.11;100.00;100524.75;5035587;28;1311;-73
2023/12/08 06:41:51;;;;;;;;;;;;;;;1.12;100.00;100534.88;5036280;28;1139;-73
2023/12/08 06:44:16;;;;;;;;;;;;;;;1.14;100.00;100529.69;5043273;28;1953;-72
2023/12/08 06:46:42;;;;;;;;;;;;;;;1.15;100.00;100533.91;5035561;28;1101;-71
2023/12/08 06:49:08;;;;;;;;;;;;;;;1.15;100.00;100539.84;5051303;28;1353;-72
2023/12/08 06:51:33;;;;;;;;;;;;;;;1.13;100.00;100515.28;5047208;28;1195;-72
2023/12/08 06:53:58;;;;;;;;;;;;;;;1.19;100.00;100522.63;5046668;28;1076;-72
2023/12/08 06:56:23;;;;;;;;;;;;;;;1.20;100.00;100516.63;5038254;28;1083;-75
2023/12/08 06:58:49;;;;;;;;;;;;;;;1.19;100.00;100525.19;5037649;28;1301;-72
2023/12/08 07:01:14;;;;;;;;;;;;;;;1.22;100.00;100530.16;5036270;28;1026;-73
2023/12/08 07:03:39;;;;;;;;;;;;;;;1.22;100.00;100532.72;5033280;28;1898;-73
2023/12/08 07:06:04;;;;;;;;;;;;;;;1.24;100.00;100525.81;5043387;28;1142;-72
2023/12/08 07:08:29;;;;;;;;;;;;;;;1.25;100.00;100527.44;5033518;28;1033;-72
2023/12/08 07:10:55;;;;;;;;;;;;;;;1.26;100.00;100539.31;5042201;28;1202;-73
2023/12/08 07:13:20;;;;;;;;;;;;;;;1.28;100.00;100529.88;5036373;28;1296;-72
2023/12/08 07:15:45;;;;;;;;;;;;;;;1.29;100.00;100534.09;5041070;28;1195;-74
2023/12/08 07:18:11;;;;;;;;;;;;;;;1.30;100.00;100535.72;5033955;28;1049;-72
2023/12/08 07:20:36;;;;;;;;;;;;;;;1.29;100.00;100524.69;5039262;28;1051;-72
2023/12/08 07:23:01;;;;;;;;;;;;;;;1.32;100.00;100521.19;5036237;28;1958;-72
2023/12/08 07:25:26;;;;;;;;;;;;;;;1.32;100.00;100523.72;5035282;28;1191;-73
2023/12/08 07:27:51;;;;;;;;;;;;;;;1.34;100.00;100532.13;5037442;28;983;-73
2023/12/08 07:30:17;;;;;;;;;;;;;;;1.35;100.00;100532.97;5031754;28;1174;-74
2023/12/08 07:32:42;;;;;;;;;;;;;;;1.37;100.00;100534.53;5037452;28;1298;-74
2023/12/08 07:35:07;;;;;;;;;;;;;;;1.37;100.00;100537.09;5030417;28;1114;-72
2023/12/08 07:37:33;;;;;;;;;;;;;;;1.40;100.00;100552.28;5032514;28;1137;-73
2023/12/08 07:39:58;;;;;;;;;;;;;;;1.43;100.00;100546.19;5026738;28;1074;-73
2023/12/08 07:42:23;;;;;;;;;;;;;;;1.44;100.00;100543.56;5032696;28;1115;-74
2023/12/08 07:44:48;;;;;;;;;;;;;;;1.44;100.00;100548.69;5031872;28;1902;-75
2023/12/08 07:47:13;;;;;;;;;;;;;;;1.47;100.00;100551.06;5040808;28;986;-74
2023/12/08 07:49:39;;;;;;;;;;;;;;;1.47;100.00;100548.53;5046205;28;1634;-72
2023/12/08 07:52:04;;;;;;;;;;;;;;;1.49;100.00;100556.97;5044851;28;1399;-73
2023/12/08 07:54:32;;;;;;;;;;;;;;;1.50;100.00;100562.91;5048603;28;1091;-73
2023/12/08 07:56:58;;;;;;;;;;;;;;;1.52;100.00;100561.91;5034248;28;1337;-73
2023/12/08 07:59:23;;;;;;;;;;;;;;;1.53;100.00;100563.56;5038684;28;1571;-73
2023/12/08 08:01:48;;;;;;;;;;;;;;;1.55;100.00;100566.88;5047922;28;1400;-73
2023/12/08 08:04:13;;;;;;;;;;;;;;;1.56;100.00;100578.75;5042978;28;1965;-73
2023/12/08 08:06:38;;;;;;;;;;;;;;;1.56;100.00;100578.75;5041313;28;1009;-73
2023/12/08 08:09:04;;;;;;;;;;;;;;;1.59;100.00;100581.16;5035316;28;1309;-73
2023/12/08 08:11:29;;;;;;;;;;;;;;;1.59;100.00;100570.09;5046178;28;1082;-73
2023/12/08 08:13:54;;;;;;;;;;;;;;;1.60;100.00;100575.13;5040990;28;1404;-73
2023/12/08 08:16:19;;;;;;;;;;;;;;;1.64;100.00;100575.00;5037283;28;1010;-73
2023/12/08 08:18:44;;;;;;;;;;;;;;;1.65;100.00;100576.66;5046799;28;1042;-74
2023/12/08 08:21:10;;;;;;;;;;;;;;;1.66;100.00;100573.19;5044875;28;1119;-72
2023/12/08 08:23:35;;;;;;;;;;;;;;;1.68;100.00;100576.53;5042329;28;1894;-72
2023/12/08 08:26:00;;;;;;;;;;;;;;;1.70;100.00;100580.63;5052188;28;1024;-73
2023/12/08 08:28:26;;;;;;;;;;;;;;;1.72;100.00;100578.00;5042264;28;1221;-74
2023/12/08 08:30:51;;;;;;;;;;;;;;;1.73;100.00;100570.28;5047791;28;1335;-74
2023/12/08 08:33:16;;;;;;;;;;;;;;;1.75;100.00;100575.31;5040095;28;1271;-72
2023/12/08 08:35:42;;;;;;;;;;;;;;;1.77;100.00;100581.16;5041626;28;1019;-73
2023/12/08 08:38:07;;;;;;;;;;;;;;;1.79;100.00;100574.25;5033065;28;1220;-73
2023/12/08 08:40:32;;;;;;;;;;;;;;;1.77;100.00;100568.38;5037699;28;1097;-75
2023/12/08 08:42:57;;;;;;;;;;;;;;;1.81;100.00;100573.28;5033756;28;1989;-72
2023/12/08 08:45:23;;;;;;;;;;;;;;;1.83;100.00;100573.19;5039181;28;1111;-74
2023/12/08 08:47:48;;;;;;;;;;;;;;;1.85;100.00;100573.97;5032390;28;1290;-73
2023/12/08 08:50:13;;;;;;;;;;;;;;;1.86;100.00;100576.44;5047195;28;1219;-73
2023/12/08 08:52:38;;;;;;;;;;;;;;;1.89;100.00;100578.00;5047793;28;1489;-74
2023/12/08 08:55:04;;;;;;;;;;;;;;;1.92;100.00;100585.53;5047678;28;1679;-74
2023/12/08 08:57:29;;;;;;;;;;;;;;;1.94;100.00;100599.06;5041923;28;1169;-72
2023/12/08 08:59:54;;;;;;;;;;;;;;;1.96;100.00;100597.28;5042618;28;1155;-73
2023/12/08 09:02:19;;;;;;;;;;;;;;;1.98;100.00;100605.69;5047407;28;1287;-73
2023/12/08 09:04:45;;;;;;;;;;;;;;;2.00;100.00;100603.88;5048347;28;1898;-75
2023/12/08 09:07:10;;;;;;;;;;;;;;;2.02;100.00;100607.19;5045876;28;994;-74
2023/12/08 09:09:35;;;;;;;;;;;;;;;2.06;100.00;100612.97;5043606;28;1003;-73
2023/12/08 09:12:00;;;;;;;;;;;;;;;2.08;100.00;100612.00;5043345;28;1165;-73
2023/12/08 09:14:27;;;;;;;;;;;;;;;2.11;100.00;100609.28;5048055;28;1156;-74
2023/12/08 09:16:52;;;;;;;;;;;;;;;2.15;100.00;100591.22;5044331;28;1453;-73
2023/12/08 09:19:17;;;;;;;;;;;;;;;2.18;100.00;100601.28;5038843;28;1234;-72
2023/12/08 09:21:43;;;;;;;;;;;;;;;2.22;100.00;100607.94;5047047;28;1164;-72
2023/12/08 09:24:08;;;;;;;;;;;;;;;2.24;100.00;100611.25;5040446;28;1898;-73
2023/12/08 09:26:33;;;;;;;;;;;;;;;2.26;100.00;100617.09;5044520;28;954;-73
2023/12/08 09:28:58;;;;;;;;;;;;;;;2.29;100.00;100619.50;5039180;28;1219;-73
2023/12/08 09:31:23;;;;;;;;;;;;;;;2.32;100.00;100624.47;5037942;28;965;-72
2023/12/08 09:33:48;;;;;;;;;;;;;;;2.36;100.00;100625.97;5039652;28;1264;-73
2023/12/08 09:36:14;;;;;;;;;;;;;;;2.37;100.00;100612.28;5041192;28;1182;-73
2023/12/08 09:38:39;;;;;;;;;;;;;;;2.40;100.00;100612.09;5045835;28;1093;-75
2023/12/08 09:41:05;;;;;;;;;;;;;;;2.44;100.00;100608.50;5041766;28;1191;-73
2023/12/08 09:43:30;;;;;;;;;;;;;;;2.48;100.00;100616.84;5032754;28;1960;-74
2023/12/08 09:45:55;;;;;;;;;;;;;;;2.50;100.00;100608.19;5040099;28;954;-73
2023/12/08 09:48:23;;;;;;;;;;;;;;;2.55;100.00;100620.75;5034706;28;1365;-73
2023/12/08 09:50:50;;;;;;;;;;;;;;;2.57;100.00;100624.88;5035595;28;1154;-72
2023/12/08 09:53:15;;;;;;;;;;;;;;;2.61;100.00;100616.13;5030038;28;1023;-75
2023/12/08 09:55:41;;;;;;;;;;;;;;;2.64;100.00;100615.97;5036503;28;911;-73
2023/12/08 09:58:07;;;;;;;;;;;;;;;2.67;100.00;100615.81;5051480;28;1001;-74
2023/12/08 10:00:33;;;;;;;;;;;;;;;2.71;100.00;100608.81;5037855;28;1075;-72
2023/12/08 10:03:00;;;;;;;;;;;;;;;2.74;100.00;100610.38;5047737;28;1141;-73
2023/12/08 10:05:25;;;;;;;;;;;;;;;2.73;100.00;100609.53;5041498;28;1141;-73
2023/12/08 10:07:50;;;;;;;;;;;;;;;2.83;100.00;100609.91;5050680;28;1254;-74
2023/12/08 10:10:16;;;;;;;;;;;;;;;2.84;100.00;100629.47;5037015;28;1102;-73
2023/12/08 10:12:41;;;;;;;;;;;;;;;2.86;100.00;100620.78;5041591;28;1153;-72
2023/12/08 10:15:13;;;;;;;;;;;;;;;2.89;100.00;100630.88;5037206;28;1170;-75
2023/12/08 10:17:45;;;;;;;;;;;;;;;2.92;100.00;100633.28;5043479;28;1360;-73
2023/12/08 10:20:11;;;;;;;;;;;;;;;2.95;100.00;100634.03;5046390;28;1087;-73
2023/12/08 10:22:43;;;;;;;;;;;;;;;2.96;100.00;100631.38;5039453;28;1046;-73
2023/12/08 10:25:09;;;;;;;;;;;;;;;2.98;100.00;100627.00;5034753;28;1967;-73
2023/12/08 10:27:34;;;;;;;;;;;;;;;3.01;100.00;100634.53;5044898;28;1180;-74
2023/12/08 10:30:01;;;;;;;;;;;;;;;3.04;100.00;100643.78;5043582;28;985;-74
2023/12/08 10:32:26;;;;;;;;;;;;;;;3.05;100.00;100641.16;5040688;28;1048;-73
2023/12/08 10:34:52;;;;;;;;;;;;;;;3.08;100.00;100635.84;5047647;28;1041;-73
2023/12/08 10:37:17;;;;;;;;;;;;;;;3.11;100.00;100637.44;5039560;28;1091;-74
2023/12/08 10:39:42;;;;;;;;;;;;;;;3.13;100.00;100639.00;5035740;28;1115;-72
2023/12/08 10:42:08;;;;;;;;;;;;;;;3.15;100.00;100626.94;5041370;28;1098;-72
2023/12/08 10:44:35;;;;;;;;;;;;;;;3.19;100.00;100628.41;5037825;28;1971;-73
2023/12/08 10:47:00;;;;;;;;;;;;;;;3.23;100.00;100634.22;5032351;28;1184;-72
2023/12/08 10:49:25;;;;;;;;;;;;;;;3.27;100.00;100634.84;5030816;28;1163;-74
2023/12/08 10:51:51;;;;;;;;;;;;;;;3.31;100.00;100632.03;5026787;28;1012;-75
2023/12/08 10:54:17;;;;;;;;;;;;;;;3.35;100.00;100637.84;5033003;28;1153;-73
2023/12/08 10:56:43;;;;;;;;;;;;;;;3.36;100.00;100626.69;5029533;28;1147;-72
2023/12/08 10:59:09;;;;;;;;;;;;;;;3.40;100.00;100638.41;5028593;28;1070;-74
2023/12/08 11:01:35;;;;;;;;;;;;;;;3.42;100.00;100631.47;5025236;28;1309;-72
2023/12/08 11:04:03;;;;;;;;;;;;;;;3.45;100.00;100633.88;5054317;28;1952;-72
2023/12/08 11:06:33;;;;;;;;;;;;;;;3.49;100.00;100635.34;5042645;28;1094;-72
2023/12/08 11:09:00;;;;;;;;;;;;;;;3.54;100.00;100638.47;5048456;28;1143;-75
2023/12/08 11:11:28;;;;;;;;;;;;;;;3.57;100.00;100622.94;5043793;28;1135;-73
2023/12/08 11:14:08;;;;;;;;;;;;;;;3.59;100.00;100626.22;5040104;28;1093;-73
2023/12/08 11:16:37;;;;;;;;;;;;;;;3.64;100.00;100634.50;5044814;28;1250;-74
2023/12/08 11:19:03;;;;;;;;;;;;;;;3.69;100.00;100627.38;5034821;28;1210;-72
2023/12/08 11:21:29;;;;;;;;;;;;;;;3.75;100.00;100630.50;5031916;28;2082;-74
2023/12/08 11:23:55;;;;;;;;;;;;;;;3.80;100.00;100623.38;5024409;28;1969;-73
2023/12/08 11:26:39;;;;;;;;;;;;;;;3.88;100.00;100626.31;5027281;28;1806;-72
2023/12/08 11:29:08;;;;;;;;;;;;;;;3.94;100.00;100631.09;5027787;28;1845;-74
2023/12/08 11:31:37;;;;;;;;;;;;;;;3.99;100.00;100623.97;5033369;28;1832;-74
2023/12/08 11:34:06;;;;;;;;;;;;;;;4.05;100.00;100621.06;5024556;28;1826;-74
2023/12/08 11:36:41;;;;;;;;;;;;;;;4.08;100.00;100618.31;5030759;28;2004;-74
2023/12/08 11:39:25;;;;;;;;;;;;;;;4.13;100.00;100621.47;5033983;28;2062;-72
2023/12/08 11:41:52;;;;;;;;;;;;;;;4.16;100.00;100623.00;5030656;28;1985;-70
2023/12/08 11:44:17;;;;;;;;;;;;;;;4.22;100.00;100631.16;5029016;28;1921;-72
2023/12/08 11:46:42;;;;;;;;;;;;;;;4.25;100.00;100636.16;5028765;28;1912;-72
2023/12/08 11:49:08;;;;;;;;;;;;;;;4.28;100.00;100629.16;5028645;28;2024;-73
2023/12/08 11:51:35;;;;;;;;;;;;;;;4.32;100.00;100628.09;5028464;28;2461;-73
2023/12/08 11:54:05;;;;;;;;;;;;;;;4.36;100.00;100634.66;5033356;28;2024;-74
2023/12/08 11:56:42;;;;;;;;;;;;;;;4.38;100.00;100627.72;5034047;28;1890;-73
2023/12/08 11:59:07;;;;;;;;;;;;;;;4.43;100.00;100638.53;5031225;28;2060;-73
2023/12/08 12:01:35;;;;;;;;;;;;;;;4.49;100.00;100633.03;5034316;28;1869;-74
2023/12/08 12:04:01;;;;;;;;;;;;;;;4.51;100.00;100631.19;5034361;28;1972;-74
2023/12/08 12:06:28;;;;;;;;;;;;;;;4.55;100.00;100637.81;5029708;28;1826;-75
2023/12/08 12:08:54;;;;;;;;;;;;;;;4.57;100.00;100627.44;5034721;28;1853;-75
2023/12/08 12:11:21;;;;;;;;;;;;;;;4.60;100.00;100638.38;5030416;28;1897;-73
2023/12/08 12:13:46;;;;;;;;;;;;;;;4.63;100.00;100640.75;5030642;28;2148;-72
2023/12/08 12:16:12;;;;;;;;;;;;;;;4.66;100.00;100645.72;5027944;28;2055;-74
2023/12/08 12:18:37;;;;;;;;;;;;;;;4.70;100.00;100636.91;5031295;28;2092;-73
2023/12/08 12:21:02;;;;;;;;;;;;;;;4.75;100.00;100647.72;5030729;28;2152;-72
2023/12/08 12:23:28;;;;;;;;;;;;;;;4.76;100.00;100646.81;5026378;28;2336;-74
2023/12/08 12:25:53;;;;;;;;;;;;;;;4.82;100.00;100644.78;5030013;28;2016;-72
2023/12/08 12:28:19;;;;;;;;;;;;;;;4.85;100.00;100644.59;5034106;28;2089;-74
2023/12/08 12:30:48;;;;;;;;;;;;;;;4.88;100.00;100644.44;5047147;28;2366;-73
2023/12/08 12:33:13;;;;;;;;;;;;;;;4.91;100.00;100645.03;5028400;28;2708;-75
2023/12/08 12:35:39;;;;;;;;;;;;;;;4.97;100.00;100638.72;5030609;28;1844;-74
2023/12/08 12:38:04;;;;;;;;;;;;;;;5.00;100.00;100641.09;5027672;28;2268;-76
2023/12/08 12:40:29;;;;;;;;;;;;;;;5.04;100.00;100637.41;5033951;28;1934;-74